createdAt,value
2018-04-06T00:00:25.981Z,1016.68
2018-04-06T00:02:19.315Z,1016.67
2018-04-06T00:03:19.242Z,1016.67
2018-04-06T00:05:12.517Z,1016.67
2018-04-06T00:06:12.428Z,1016.64
2018-04-06T00:08:05.796Z,1016.65
2018-04-06T00:09:05.611Z,1016.64
2018-04-06T00:10:58.999Z,1016.70
2018-04-06T00:11:58.806Z,1016.69
2018-04-06T00:13:52.174Z,1016.75
2018-04-06T00:14:51.991Z,1016.75
2018-04-06T00:16:45.256Z,1016.78
2018-04-06T00:17:45.219Z,1016.82
2018-04-06T00:19:38.442Z,1016.81
2018-04-06T00:20:38.352Z,1016.83
2018-04-06T00:22:31.613Z,1016.81
2018-04-06T00:23:31.537Z,1016.75
2018-04-06T00:25:24.926Z,1016.80
2018-04-06T00:26:24.721Z,1016.82
2018-04-06T00:28:17.982Z,1016.80
2018-04-06T00:29:17.906Z,1016.82
2018-04-06T00:31:11.292Z,1016.80
2018-04-06T00:32:11.092Z,1016.82
2018-04-06T00:34:04.361Z,1016.84
2018-04-06T00:35:04.270Z,1016.87
2018-04-06T00:36:57.533Z,1016.86
2018-04-06T00:37:57.444Z,1016.84
2018-04-06T00:39:50.831Z,1016.85
2018-04-06T00:40:50.629Z,1016.88
2018-04-06T00:42:43.996Z,1016.85
2018-04-06T00:43:43.814Z,1016.82
2018-04-06T00:45:37.203Z,1016.84
2018-04-06T00:46:36.997Z,1016.83
2018-04-06T00:48:30.370Z,1016.83
2018-04-06T00:49:30.182Z,1016.84
2018-04-06T00:51:23.460Z,1016.87
2018-04-06T00:52:23.369Z,1016.86
2018-04-06T00:54:16.735Z,1016.88
2018-04-06T00:55:16.553Z,1016.90
2018-04-06T00:57:09.943Z,1016.82
2018-04-06T00:58:09.729Z,1016.85
2018-04-06T01:00:03.115Z,1016.88
2018-04-06T01:01:02.913Z,1016.95
2018-04-06T01:02:56.170Z,1016.89
2018-04-06T01:03:56.096Z,1016.93
2018-04-06T01:05:49.372Z,1016.91
2018-04-06T01:06:49.284Z,1016.88
2018-04-06T01:08:42.540Z,1016.84
2018-04-06T01:09:42.466Z,1016.86
2018-04-06T01:11:36.352Z,1016.82
2018-04-06T01:12:35.655Z,1016.79
2018-04-06T01:14:29.019Z,1016.73
2018-04-06T01:15:28.844Z,1016.73
2018-04-06T01:17:22.113Z,1016.70
2018-04-06T01:18:22.019Z,1016.70
2018-04-06T01:20:15.331Z,1016.71
2018-04-06T01:21:15.240Z,1016.73
2018-04-06T01:23:08.609Z,1016.72
2018-04-06T01:24:08.418Z,1016.71
2018-04-06T01:26:01.700Z,1016.73
2018-04-06T01:27:01.611Z,1016.69
2018-04-06T01:28:54.978Z,1016.74
2018-04-06T01:29:54.794Z,1016.71
2018-04-06T01:31:48.180Z,1016.66
2018-04-06T01:32:47.977Z,1016.70
2018-04-06T01:34:41.317Z,1016.68
2018-04-06T01:35:41.247Z,1016.68
2018-04-06T01:37:34.507Z,1016.69
2018-04-06T01:38:34.417Z,1016.68
2018-04-06T01:40:27.698Z,1016.66
2018-04-06T01:41:27.602Z,1016.71
2018-04-06T01:43:20.860Z,1016.69
2018-04-06T01:44:20.789Z,1016.67
2018-04-06T01:46:14.070Z,1016.67
2018-04-06T01:47:13.973Z,1016.60
2018-04-06T01:49:07.344Z,1016.61
2018-04-06T01:50:07.243Z,1016.55
2018-04-06T01:52:00.632Z,1016.52
2018-04-06T01:53:00.446Z,1016.48
2018-04-06T01:54:53.679Z,1016.47
2018-04-06T01:55:53.615Z,1016.44
2018-04-06T01:57:46.886Z,1016.38
2018-04-06T01:58:46.796Z,1016.41
2018-04-06T02:00:40.184Z,1016.38
2018-04-06T02:01:39.980Z,1016.41
2018-04-06T02:03:33.349Z,1016.44
2018-04-06T02:04:33.243Z,1016.44
2018-04-06T02:06:26.519Z,1016.46
2018-04-06T02:07:26.429Z,1016.51
2018-04-06T02:09:19.795Z,1016.48
2018-04-06T02:10:19.614Z,1016.49
2018-04-06T02:12:12.999Z,1016.49
2018-04-06T02:13:12.797Z,1016.50
2018-04-06T02:15:06.166Z,1016.48
2018-04-06T02:16:05.983Z,1016.48
2018-04-06T02:17:59.339Z,1016.52
2018-04-06T02:18:59.247Z,1016.56
2018-04-06T02:20:52.628Z,1016.59
2018-04-06T02:21:52.424Z,1016.51
2018-04-06T02:23:45.681Z,1016.57
2018-04-06T02:24:45.661Z,1016.55
2018-04-06T02:26:38.874Z,1016.51
2018-04-06T02:27:38.789Z,1016.49
2018-04-06T02:29:32.152Z,1016.53
2018-04-06T02:30:31.968Z,1016.55
2018-04-06T02:32:25.240Z,1016.54
2018-04-06T02:33:25.150Z,1016.53
2018-04-06T02:35:18.409Z,1016.57
2018-04-06T02:36:18.331Z,1016.55
2018-04-06T02:38:11.606Z,1016.54
2018-04-06T02:39:11.518Z,1016.51
2018-04-06T02:41:04.902Z,1016.52
2018-04-06T02:42:04.698Z,1016.48
2018-04-06T02:43:58.065Z,1016.47
2018-04-06T02:44:57.888Z,1016.43
2018-04-06T02:46:51.769Z,1016.50
2018-04-06T02:47:51.059Z,1016.47
2018-04-06T02:49:44.422Z,1016.46
2018-04-06T02:50:44.239Z,1016.48
2018-04-06T02:52:37.624Z,1016.49
2018-04-06T02:53:37.427Z,1016.44
2018-04-06T02:55:30.788Z,1016.46
2018-04-06T02:56:30.604Z,1016.47
2018-04-06T02:58:23.990Z,1016.50
2018-04-06T02:59:23.784Z,1016.51
2018-04-06T03:01:17.066Z,1016.51
2018-04-06T03:02:16.973Z,1016.49
2018-04-06T03:04:10.338Z,1016.49
2018-04-06T03:05:10.156Z,1016.47
2018-04-06T03:07:03.539Z,1016.53
2018-04-06T03:08:03.326Z,1016.59
2018-04-06T03:09:56.581Z,1016.57
2018-04-06T03:10:56.509Z,1016.59
2018-04-06T03:12:49.781Z,1016.66
2018-04-06T03:13:49.690Z,1016.64
2018-04-06T03:15:43.057Z,1016.64
2018-04-06T03:16:42.869Z,1016.69
2018-04-06T03:18:36.253Z,1016.70
2018-04-06T03:19:36.053Z,1016.72
2018-04-06T03:21:29.331Z,1016.81
2018-04-06T03:22:29.239Z,1016.80
2018-04-06T03:24:22.605Z,1016.84
2018-04-06T03:25:22.421Z,1016.77
2018-04-06T03:27:15.804Z,1016.81
2018-04-06T03:28:15.590Z,1016.81
2018-04-06T03:30:08.956Z,1016.76
2018-04-06T03:31:08.772Z,1016.82
2018-04-06T03:33:02.043Z,1016.81
2018-04-06T03:34:01.951Z,1016.83
2018-04-06T03:35:55.317Z,1016.83
2018-04-06T03:36:55.131Z,1016.80
2018-04-06T03:38:48.405Z,1016.82
2018-04-06T03:39:48.310Z,1016.81
2018-04-06T03:41:41.589Z,1016.79
2018-04-06T03:42:41.496Z,1016.80
2018-04-06T03:44:34.872Z,1016.79
2018-04-06T03:45:34.680Z,1016.79
2018-04-06T03:47:28.065Z,1016.79
2018-04-06T03:48:27.852Z,1016.75
2018-04-06T03:50:21.217Z,1016.72
2018-04-06T03:51:21.031Z,1016.73
2018-04-06T03:53:14.415Z,1016.75
2018-04-06T03:54:14.212Z,1016.72
2018-04-06T03:56:07.575Z,1016.70
2018-04-06T03:57:07.388Z,1016.71
2018-04-06T03:59:00.773Z,1016.73
2018-04-06T04:00:00.568Z,1016.77
2018-04-06T04:01:53.843Z,1016.76
2018-04-06T04:02:53.751Z,1016.76
2018-04-06T04:04:47.002Z,1016.76
2018-04-06T04:05:46.928Z,1016.76
2018-04-06T04:07:40.314Z,1016.72
2018-04-06T04:08:40.098Z,1016.74
2018-04-06T04:10:33.357Z,1016.72
2018-04-06T04:11:33.278Z,1016.75
2018-04-06T04:13:26.667Z,1016.72
2018-04-06T04:14:26.489Z,1016.71
2018-04-06T04:16:19.822Z,1016.73
2018-04-06T04:17:19.638Z,1016.69
2018-04-06T04:19:13.022Z,1016.65
2018-04-06T04:20:12.817Z,1016.68
2018-04-06T04:22:06.203Z,1016.65
2018-04-06T04:23:05.999Z,1016.68
2018-04-06T04:24:59.367Z,1016.63
2018-04-06T04:25:59.238Z,1016.62
2018-04-06T04:27:52.625Z,1016.60
2018-04-06T04:28:52.420Z,1016.58
2018-04-06T04:30:45.788Z,1016.50
2018-04-06T04:31:45.600Z,1016.53
2018-04-06T04:33:38.982Z,1016.57
2018-04-06T04:34:38.775Z,1016.59
2018-04-06T04:36:32.160Z,1016.63
2018-04-06T04:37:31.959Z,1016.66
2018-04-06T04:39:25.338Z,1016.65
2018-04-06T04:40:25.135Z,1016.68
2018-04-06T04:42:18.407Z,1016.74
2018-04-06T04:43:18.315Z,1016.74
2018-04-06T04:45:11.567Z,1016.72
2018-04-06T04:46:11.493Z,1016.75
2018-04-06T04:48:04.764Z,1016.75
2018-04-06T04:49:04.674Z,1016.76
2018-04-06T04:50:58.037Z,1016.76
2018-04-06T04:51:57.851Z,1016.80
2018-04-06T04:53:51.234Z,1016.82
2018-04-06T04:54:51.026Z,1016.81
2018-04-06T04:56:44.392Z,1016.76
2018-04-06T04:57:44.201Z,1016.73
2018-04-06T04:59:37.470Z,1016.71
2018-04-06T05:00:37.376Z,1016.74
2018-04-06T05:02:30.647Z,1016.76
2018-04-06T05:03:30.555Z,1016.74
2018-04-06T05:05:23.920Z,1016.69
2018-04-06T05:06:23.732Z,1016.69
2018-04-06T05:08:17.118Z,1016.73
2018-04-06T05:09:16.915Z,1016.75
2018-04-06T05:11:10.167Z,1016.77
2018-04-06T05:12:10.094Z,1016.79
2018-04-06T05:14:03.476Z,1016.77
2018-04-06T05:15:03.271Z,1016.80
2018-04-06T05:16:56.516Z,1016.77
2018-04-06T05:17:56.442Z,1016.80
2018-04-06T05:19:49.712Z,1016.77
2018-04-06T05:20:49.625Z,1016.73
2018-04-06T05:22:42.892Z,1016.76
2018-04-06T05:23:42.801Z,1016.79
2018-04-06T05:25:36.169Z,1016.80
2018-04-06T05:26:35.979Z,1016.80
2018-04-06T05:28:29.331Z,1016.72
2018-04-06T05:29:29.238Z,1016.70
2018-04-06T05:31:23.603Z,1016.73
2018-04-06T05:32:23.454Z,1016.68
2018-04-06T05:34:16.677Z,1016.65
2018-04-06T05:35:16.583Z,1016.66
2018-04-06T05:37:09.828Z,1016.70
2018-04-06T05:38:09.754Z,1016.65
2018-04-06T05:40:03.138Z,1016.68
2018-04-06T05:41:02.932Z,1016.65
2018-04-06T05:42:56.316Z,1016.68
2018-04-06T05:43:56.111Z,1016.66
2018-04-06T05:45:49.365Z,1016.67
2018-04-06T05:46:49.291Z,1016.65
2018-04-06T05:48:42.677Z,1016.59
2018-04-06T05:49:42.471Z,1016.62
2018-04-06T05:51:35.840Z,1016.66
2018-04-06T05:52:35.652Z,1016.68
2018-04-06T05:54:29.036Z,1016.68
2018-04-06T05:55:28.831Z,1016.67
2018-04-06T05:57:22.078Z,1016.72
2018-04-06T05:58:22.005Z,1016.76
2018-04-06T06:00:15.331Z,1016.76
2018-04-06T06:01:15.240Z,1016.75
2018-04-06T06:03:08.508Z,1016.77
2018-04-06T06:04:08.418Z,1016.79
2018-04-06T06:06:01.784Z,1016.78
2018-04-06T06:07:01.617Z,1016.78
2018-04-06T06:08:55.010Z,1016.84
2018-04-06T06:09:54.851Z,1016.84
2018-04-06T06:11:48.162Z,1016.91
2018-04-06T06:12:47.975Z,1016.83
2018-04-06T06:14:41.361Z,1016.84
2018-04-06T06:15:41.239Z,1016.88
2018-04-06T06:17:34.483Z,1016.83
2018-04-06T06:18:34.409Z,1016.85
2018-04-06T06:20:27.796Z,1016.90
2018-04-06T06:21:27.599Z,1016.87
2018-04-06T06:23:20.872Z,1016.87
2018-04-06T06:24:20.780Z,1016.87
2018-04-06T06:26:14.034Z,1016.92
2018-04-06T06:27:13.958Z,1016.91
2018-04-06T06:29:07.291Z,1016.90
2018-04-06T06:30:07.140Z,1016.85
2018-04-06T06:32:00.504Z,1016.83
2018-04-06T06:33:00.319Z,1016.88
2018-04-06T06:34:53.703Z,1016.93
2018-04-06T06:35:53.497Z,1016.90
2018-04-06T06:37:46.863Z,1016.93
2018-04-06T06:38:46.679Z,1016.92
2018-04-06T06:40:39.952Z,1016.84
2018-04-06T06:41:39.858Z,1016.82
2018-04-06T06:43:33.243Z,1016.88
2018-04-06T06:44:33.041Z,1016.83
2018-04-06T06:46:26.406Z,1016.84
2018-04-06T06:47:26.221Z,1016.81
2018-04-06T06:49:19.481Z,1016.76
2018-04-06T06:50:19.391Z,1016.73
2018-04-06T06:52:12.646Z,1016.73
2018-04-06T06:53:12.572Z,1016.69
2018-04-06T06:55:05.959Z,1016.61
2018-04-06T06:56:05.743Z,1016.58
2018-04-06T06:57:58.986Z,1016.56
2018-04-06T06:58:58.926Z,1016.54
2018-04-06T07:00:52.299Z,1016.57
2018-04-06T07:01:52.085Z,1016.54
2018-04-06T07:03:45.480Z,1016.54
2018-04-06T07:04:45.259Z,1016.53
2018-04-06T07:06:38.626Z,1016.53
2018-04-06T07:07:38.432Z,1016.57
2018-04-06T07:09:31.694Z,1016.50
2018-04-06T07:10:31.602Z,1016.47
2018-04-06T07:12:24.849Z,1016.45
2018-04-06T07:13:24.775Z,1016.45
2018-04-06T07:15:18.161Z,1016.38
2018-04-06T07:16:17.948Z,1016.35
2018-04-06T07:18:11.316Z,1016.38
2018-04-06T07:19:11.119Z,1016.40
2018-04-06T07:21:04.506Z,1016.38
2018-04-06T07:22:04.294Z,1016.35
2018-04-06T07:23:57.557Z,1016.36
2018-04-06T07:24:57.471Z,1016.37
2018-04-06T07:26:50.717Z,1016.34
2018-04-06T07:27:50.641Z,1016.34
2018-04-06T07:29:43.917Z,1016.33
2018-04-06T07:30:43.815Z,1016.36
2018-04-06T07:32:37.184Z,1016.27
2018-04-06T07:33:36.991Z,1016.28
2018-04-06T07:35:30.256Z,1016.26
2018-04-06T07:36:30.165Z,1016.22
2018-04-06T07:38:23.422Z,1016.17
2018-04-06T07:39:23.350Z,1016.13
2018-04-06T07:41:16.616Z,1016.06
2018-04-06T07:42:16.526Z,1016.10
2018-04-06T07:44:09.921Z,1016.15
2018-04-06T07:45:09.702Z,1016.17
2018-04-06T07:47:02.952Z,1016.17
2018-04-06T07:48:02.880Z,1016.17
2018-04-06T07:49:56.269Z,1016.15
2018-04-06T07:50:56.069Z,1016.14
2018-04-06T07:52:49.316Z,1016.17
2018-04-06T07:53:49.245Z,1016.18
2018-04-06T07:55:42.527Z,1016.21
2018-04-06T07:56:42.422Z,1016.23
2018-04-06T07:58:35.670Z,1016.32
2018-04-06T07:59:35.598Z,1016.33
2018-04-06T08:01:29.493Z,1016.36
2018-04-06T08:02:28.778Z,1016.37
2018-04-06T08:04:22.167Z,1016.40
2018-04-06T08:05:21.959Z,1016.38
2018-04-06T08:07:15.215Z,1016.37
2018-04-06T08:08:15.142Z,1016.39
2018-04-06T08:10:08.536Z,1016.39
2018-04-06T08:11:08.324Z,1016.41
2018-04-06T08:13:01.576Z,1016.36
2018-04-06T08:14:01.508Z,1016.43
2018-04-06T08:15:54.896Z,1016.40
2018-04-06T08:16:54.691Z,1016.35
2018-04-06T08:18:47.946Z,1016.39
2018-04-06T08:19:47.879Z,1016.41
2018-04-06T08:21:41.271Z,1016.38
2018-04-06T08:22:41.064Z,1016.38
2018-04-06T08:24:34.336Z,1016.39
2018-04-06T08:25:34.253Z,1016.32
2018-04-06T08:27:27.624Z,1016.28
2018-04-06T08:28:27.438Z,1016.30
2018-04-06T08:30:20.831Z,1016.28
2018-04-06T08:31:20.626Z,1016.28
2018-04-06T08:33:13.880Z,1016.29
2018-04-06T08:34:13.814Z,1016.30
2018-04-06T08:36:07.104Z,1016.29
2018-04-06T08:37:07.011Z,1016.31
2018-04-06T08:39:00.385Z,1016.29
2018-04-06T08:40:00.199Z,1016.33
2018-04-06T08:41:53.593Z,1016.23
2018-04-06T08:42:53.388Z,1016.29
2018-04-06T08:44:46.780Z,1016.26
2018-04-06T08:45:46.635Z,1016.33
2018-04-06T08:47:39.961Z,1016.40
2018-04-06T08:48:39.782Z,1016.36
2018-04-06T08:50:33.172Z,1016.30
2018-04-06T08:51:32.980Z,1016.32
2018-04-06T08:53:26.346Z,1016.29
2018-04-06T08:54:26.164Z,1016.23
2018-04-06T08:56:19.563Z,1016.18
2018-04-06T08:57:19.365Z,1016.19
2018-04-06T08:59:12.617Z,1016.18
2018-04-06T09:00:12.554Z,1016.15
2018-04-06T09:02:05.953Z,1016.13
2018-04-06T09:03:05.755Z,1016.04
2018-04-06T09:04:59.158Z,1016.05
2018-04-06T09:05:58.953Z,1016.05
2018-04-06T09:07:52.225Z,1016.00
2018-04-06T09:08:52.154Z,1016.04
2018-04-06T09:10:45.434Z,1016.02
2018-04-06T09:11:45.356Z,1015.98
2018-04-06T09:13:38.627Z,1015.93
2018-04-06T09:14:38.560Z,1015.97
2018-04-06T09:16:31.960Z,1015.94
2018-04-06T09:17:31.774Z,1015.91
2018-04-06T09:19:25.139Z,1015.92
2018-04-06T09:20:24.959Z,1015.91
2018-04-06T09:22:18.356Z,1015.92
2018-04-06T09:23:18.160Z,1015.92
2018-04-06T09:25:11.558Z,1015.92
2018-04-06T09:26:11.368Z,1015.89
2018-04-06T09:28:04.632Z,1015.93
2018-04-06T09:29:04.576Z,1015.85
2018-04-06T09:30:57.850Z,1015.86
2018-04-06T09:31:57.768Z,1015.86
2018-04-06T09:33:51.032Z,1015.81
2018-04-06T09:34:50.969Z,1015.79
2018-04-06T09:36:44.251Z,1015.76
2018-04-06T09:37:44.169Z,1015.78
2018-04-06T09:39:37.550Z,1015.80
2018-04-06T09:40:37.370Z,1015.71
2018-04-06T09:42:30.651Z,1015.74
2018-04-06T09:43:30.571Z,1015.77
2018-04-06T09:45:23.863Z,1015.65
2018-04-06T09:46:23.783Z,1015.70
2018-04-06T09:48:17.046Z,1015.60
2018-04-06T09:49:16.983Z,1015.59
2018-04-06T09:51:10.380Z,1015.59
2018-04-06T09:52:10.295Z,1015.59
2018-04-06T09:54:03.558Z,1015.54
2018-04-06T09:55:03.494Z,1015.51
2018-04-06T09:56:56.782Z,1015.52
2018-04-06T09:57:56.698Z,1015.50
2018-04-06T09:59:49.968Z,1015.44
2018-04-06T10:00:49.902Z,1015.47
2018-04-06T10:02:43.191Z,1015.38
2018-04-06T10:03:43.109Z,1015.39
2018-04-06T10:05:36.514Z,1015.35
2018-04-06T10:06:36.312Z,1015.30
2018-04-06T10:08:29.579Z,1015.30
2018-04-06T10:09:29.516Z,1015.29
2018-04-06T10:11:22.917Z,1015.28
2018-04-06T10:12:22.720Z,1015.27
2018-04-06T10:14:16.098Z,1015.30
2018-04-06T10:15:15.922Z,1015.25
2018-04-06T10:17:09.198Z,1015.20
2018-04-06T10:18:09.116Z,1015.23
2018-04-06T10:20:02.497Z,1015.16
2018-04-06T10:21:02.322Z,1015.19
2018-04-06T10:22:55.722Z,1015.14
2018-04-06T10:23:55.525Z,1015.28
2018-04-06T10:25:48.808Z,1015.26
2018-04-06T10:26:48.728Z,1015.25
2018-04-06T10:28:42.108Z,1015.21
2018-04-06T10:29:41.929Z,1015.20
2018-04-06T10:31:35.332Z,1015.20
2018-04-06T10:32:35.134Z,1015.23
2018-04-06T10:34:28.515Z,1015.14
2018-04-06T10:35:28.338Z,1015.13
2018-04-06T10:37:21.739Z,1015.05
2018-04-06T10:38:21.547Z,1015.00
2018-04-06T10:40:14.927Z,1014.95
2018-04-06T10:41:14.751Z,1014.93
2018-04-06T10:43:08.053Z,1014.93
2018-04-06T10:44:07.969Z,1014.95
2018-04-06T10:46:01.338Z,1014.93
2018-04-06T10:47:01.260Z,1014.89
2018-04-06T10:48:54.540Z,1014.85
2018-04-06T10:49:54.476Z,1014.88
2018-04-06T10:51:47.922Z,1014.82
2018-04-06T10:52:47.699Z,1014.78
2018-04-06T10:54:41.075Z,1014.77
2018-04-06T10:55:40.914Z,1014.79
2018-04-06T10:57:34.316Z,1014.78
2018-04-06T10:58:34.164Z,1014.75
2018-04-06T11:00:27.505Z,1014.74
2018-04-06T11:01:27.341Z,1014.72
2018-04-06T11:03:20.744Z,1014.71
2018-04-06T11:04:20.564Z,1014.71
2018-04-06T11:06:13.964Z,1014.69
2018-04-06T11:07:13.777Z,1014.67
2018-04-06T11:09:07.052Z,1014.58
2018-04-06T11:10:07.005Z,1014.53
2018-04-06T11:12:00.396Z,1014.52
2018-04-06T11:13:00.212Z,1014.55
2018-04-06T11:14:53.491Z,1014.58
2018-04-06T11:15:53.437Z,1014.50
2018-04-06T11:17:46.728Z,1014.45
2018-04-06T11:18:46.647Z,1014.41
2018-04-06T11:20:39.935Z,1014.53
2018-04-06T11:21:39.871Z,1014.56
2018-04-06T11:23:33.160Z,1014.47
2018-04-06T11:24:33.071Z,1014.46
2018-04-06T11:26:26.452Z,1014.38
2018-04-06T11:27:26.284Z,1014.43
2018-04-06T11:29:19.576Z,1014.39
2018-04-06T11:30:19.491Z,1014.39
2018-04-06T11:32:12.776Z,1014.31
2018-04-06T11:33:12.690Z,1014.29
2018-04-06T11:35:05.953Z,1014.24
2018-04-06T11:36:05.888Z,1014.26
2018-04-06T11:37:59.333Z,1014.23
2018-04-06T11:38:59.092Z,1014.24
2018-04-06T11:40:52.480Z,1014.17
2018-04-06T11:41:52.303Z,1014.14
2018-04-06T11:43:45.699Z,1014.19
2018-04-06T11:44:45.505Z,1014.10
2018-04-06T11:46:38.786Z,1014.07
2018-04-06T11:47:38.703Z,1014.08
2018-04-06T11:49:31.974Z,1014.02
2018-04-06T11:50:31.909Z,1014.00
2018-04-06T11:52:25.198Z,1013.95
2018-04-06T11:53:25.113Z,1013.94
2018-04-06T11:55:18.381Z,1014.01
2018-04-06T11:56:18.319Z,1014.00
2018-04-06T11:58:11.719Z,1013.94
2018-04-06T11:59:11.526Z,1013.96
2018-04-06T12:01:04.904Z,1013.94
2018-04-06T12:02:04.738Z,1013.95
2018-04-06T12:03:58.003Z,1013.96
2018-04-06T12:04:57.919Z,1013.98
2018-04-06T12:06:51.317Z,1013.90
2018-04-06T12:07:51.144Z,1013.86
2018-04-06T12:09:44.387Z,1013.69
2018-04-06T12:10:44.322Z,1013.76
2018-04-06T12:12:37.717Z,1013.79
2018-04-06T12:13:37.527Z,1013.68
2018-04-06T12:15:30.798Z,1013.69
2018-04-06T12:16:30.737Z,1013.63
2018-04-06T12:18:24.024Z,1013.56
2018-04-06T12:19:23.938Z,1013.59
2018-04-06T12:21:17.324Z,1013.52
2018-04-06T12:22:17.145Z,1013.49
2018-04-06T12:24:10.434Z,1013.52
2018-04-06T12:25:10.350Z,1013.51
2018-04-06T12:27:03.632Z,1013.46
2018-04-06T12:28:03.548Z,1013.46
2018-04-06T12:29:56.819Z,1013.41
2018-04-06T12:30:56.756Z,1013.43
2018-04-06T12:32:50.046Z,1013.44
2018-04-06T12:33:49.962Z,1013.38
2018-04-06T12:35:43.227Z,1013.40
2018-04-06T12:36:43.162Z,1013.35
2018-04-06T12:38:36.558Z,1013.39
2018-04-06T12:39:36.358Z,1013.35
2018-04-06T12:41:29.757Z,1013.39
2018-04-06T12:42:29.556Z,1013.37
2018-04-06T12:44:22.856Z,1013.29
2018-04-06T12:45:22.762Z,1013.27
2018-04-06T12:47:16.161Z,1013.28
2018-04-06T12:48:15.962Z,1013.23
2018-04-06T12:50:09.344Z,1013.21
2018-04-06T12:51:09.258Z,1013.10
2018-04-06T12:53:02.652Z,1013.18
2018-04-06T12:54:02.463Z,1013.16
2018-04-06T12:55:55.782Z,1013.17
2018-04-06T12:56:55.669Z,1013.12
2018-04-06T12:58:48.961Z,1013.08
2018-04-06T12:59:48.877Z,1013.01
2018-04-06T13:01:42.190Z,1012.97
2018-04-06T13:02:42.084Z,1012.99
2018-04-06T13:04:35.357Z,1012.98
2018-04-06T13:05:35.293Z,1012.95
2018-04-06T13:07:28.690Z,1013.03
2018-04-06T13:08:28.493Z,1012.93
2018-04-06T13:10:21.902Z,1012.92
2018-04-06T13:11:21.712Z,1012.89
2018-04-06T13:13:15.001Z,1012.82
2018-04-06T13:14:14.918Z,1012.82
2018-04-06T13:16:08.300Z,1012.72
2018-04-06T13:17:08.129Z,1012.77
2018-04-06T13:19:01.527Z,1012.66
2018-04-06T13:20:01.345Z,1012.64
2018-04-06T13:21:54.633Z,1012.61
2018-04-06T13:22:54.554Z,1012.62
2018-04-06T13:24:47.933Z,1012.46
2018-04-06T13:25:47.763Z,1012.58
2018-04-06T13:27:41.047Z,1012.55
2018-04-06T13:28:40.967Z,1012.46
2018-04-06T13:30:34.242Z,1012.47
2018-04-06T13:31:34.179Z,1012.46
2018-04-06T13:33:27.577Z,1012.42
2018-04-06T13:34:27.390Z,1012.46
2018-04-06T13:36:20.769Z,1012.37
2018-04-06T13:37:20.598Z,1012.36
2018-04-06T13:39:13.894Z,1012.22
2018-04-06T13:40:13.807Z,1012.26
2018-04-06T13:42:07.108Z,1012.17
2018-04-06T13:43:07.019Z,1012.12
2018-04-06T13:45:00.289Z,1012.16
2018-04-06T13:46:00.230Z,1012.10
2018-04-06T13:47:53.633Z,1011.99
2018-04-06T13:48:53.439Z,1012.03
2018-04-06T13:50:46.715Z,1011.90
2018-04-06T13:51:46.650Z,1011.95
2018-04-06T13:53:40.051Z,1011.93
2018-04-06T13:54:39.854Z,1011.97
2018-04-06T13:56:33.246Z,1011.95
2018-04-06T13:57:33.089Z,1011.86
2018-04-06T13:59:26.487Z,1011.89
2018-04-06T14:00:26.302Z,1011.91
2018-04-06T14:02:19.698Z,1011.79
2018-04-06T14:03:19.512Z,1011.76
2018-04-06T14:05:12.889Z,1011.69
2018-04-06T14:06:12.713Z,1011.68
2018-04-06T14:08:06.110Z,1011.63
2018-04-06T14:09:05.922Z,1011.55
2018-04-06T14:10:59.302Z,1011.42
2018-04-06T14:11:59.133Z,1011.51
2018-04-06T14:13:52.530Z,1011.55
2018-04-06T14:14:52.343Z,1011.40
2018-04-06T14:16:45.612Z,1011.50
2018-04-06T14:17:45.546Z,1011.34
2018-04-06T14:19:38.839Z,1011.39
2018-04-06T14:20:38.758Z,1011.39
2018-04-06T14:22:32.157Z,1011.29
2018-04-06T14:23:32.005Z,1011.27
2018-04-06T14:25:25.347Z,1011.25
2018-04-06T14:26:25.254Z,1011.32
2018-04-06T14:28:18.550Z,1011.23
2018-04-06T14:29:18.474Z,1011.15
2018-04-06T14:31:11.847Z,1011.18
2018-04-06T14:32:11.677Z,1011.14
2018-04-06T14:34:05.076Z,1011.15
2018-04-06T14:35:04.887Z,1011.11
2018-04-06T14:36:58.267Z,1011.07
2018-04-06T14:37:58.091Z,1011.05
2018-04-06T14:39:51.390Z,1011.08
2018-04-06T14:40:51.302Z,1011.07
2018-04-06T14:42:44.597Z,1011.01
2018-04-06T14:43:44.513Z,1011.05
2018-04-06T14:45:37.893Z,1011.06
2018-04-06T14:46:37.734Z,1010.96
2018-04-06T14:48:31.132Z,1010.98
2018-04-06T14:49:30.943Z,1011.05
2018-04-06T14:51:24.322Z,1010.98
2018-04-06T14:52:24.153Z,1010.99
2018-04-06T14:54:17.553Z,1010.94
2018-04-06T14:55:17.365Z,1010.90
2018-04-06T14:57:10.745Z,1010.80
2018-04-06T14:58:10.567Z,1010.79
2018-04-06T15:00:03.972Z,1010.56
2018-04-06T15:01:03.780Z,1010.62
2018-04-06T15:02:58.179Z,1010.69
2018-04-06T15:03:57.983Z,1010.66
2018-04-06T15:05:51.360Z,1010.71
2018-04-06T15:06:51.252Z,1010.75
2018-04-06T15:08:44.650Z,1010.69
2018-04-06T15:09:44.462Z,1010.69
2018-04-06T15:11:37.842Z,1010.64
2018-04-06T15:12:37.674Z,1010.65
2018-04-06T15:14:31.070Z,1010.59
2018-04-06T15:15:30.897Z,1010.61
2018-04-06T15:17:24.162Z,1010.59
2018-04-06T15:18:24.100Z,1010.56
2018-04-06T15:20:18.500Z,1010.56
2018-04-06T15:21:18.308Z,1010.53
2018-04-06T15:23:11.600Z,1010.52
2018-04-06T15:24:11.519Z,1010.56
2018-04-06T15:26:04.793Z,1010.56
2018-04-06T15:27:04.729Z,1010.53
2018-04-06T15:28:58.128Z,1010.58
2018-04-06T15:29:57.940Z,1010.48
2018-04-06T15:31:51.322Z,1010.55
2018-04-06T15:32:51.152Z,1010.36
2018-04-06T15:34:44.453Z,1010.47
2018-04-06T15:35:44.371Z,1010.39
2018-04-06T15:37:37.751Z,1010.45
2018-04-06T15:38:37.574Z,1010.49
2018-04-06T15:40:30.977Z,1010.39
2018-04-06T15:41:30.794Z,1010.41
2018-04-06T15:43:24.088Z,1010.43
2018-04-06T15:44:24.005Z,1010.38
2018-04-06T15:46:17.386Z,1010.37
2018-04-06T15:47:17.258Z,1010.34
2018-04-06T15:49:10.548Z,1010.32
2018-04-06T15:50:10.464Z,1010.28
2018-04-06T15:52:03.847Z,1010.27
2018-04-06T15:53:03.681Z,1010.20
2018-04-06T15:54:57.078Z,1010.19
2018-04-06T15:55:56.889Z,1010.21
2018-04-06T15:57:50.165Z,1010.22
2018-04-06T15:58:50.102Z,1010.22
2018-04-06T16:00:43.500Z,1010.17
2018-04-06T16:01:43.314Z,1010.17
2018-04-06T16:03:36.713Z,1010.11
2018-04-06T16:04:36.526Z,1010.14
2018-04-06T16:06:29.905Z,1010.17
2018-04-06T16:07:29.736Z,1010.16
2018-04-06T16:09:23.024Z,1010.10
2018-04-06T16:10:22.946Z,1010.14
2018-04-06T16:12:16.330Z,1010.06
2018-04-06T16:13:16.159Z,1010.12
2018-04-06T16:15:09.452Z,1010.11
2018-04-06T16:16:09.372Z,1010.08
2018-04-06T16:18:02.648Z,1010.03
2018-04-06T16:19:02.585Z,1010.04
2018-04-06T16:20:55.983Z,1010.05
2018-04-06T16:21:55.796Z,1010.01
2018-04-06T16:23:49.091Z,1010.01
2018-04-06T16:24:49.010Z,1009.99
2018-04-06T16:26:42.386Z,1009.98
2018-04-06T16:27:42.211Z,1009.94
2018-04-06T16:29:35.504Z,1009.96
2018-04-06T16:30:35.421Z,1009.93
2018-04-06T16:32:28.698Z,1009.97
2018-04-06T16:33:28.631Z,1009.90
2018-04-06T16:35:22.031Z,1009.89
2018-04-06T16:36:21.848Z,1009.96
2018-04-06T16:38:15.123Z,1009.89
2018-04-06T16:39:15.057Z,1009.93
2018-04-06T16:41:08.349Z,1009.93
2018-04-06T16:42:08.302Z,1009.83
2018-04-06T16:44:01.666Z,1009.87
2018-04-06T16:45:01.480Z,1009.88
2018-04-06T16:46:54.859Z,1009.91
2018-04-06T16:47:54.683Z,1009.86
2018-04-06T16:49:47.974Z,1009.87
2018-04-06T16:50:47.893Z,1009.88
2018-04-06T16:52:41.273Z,1009.88
2018-04-06T16:53:41.103Z,1009.89
2018-04-06T16:55:34.397Z,1009.88
2018-04-06T16:56:34.322Z,1009.87
2018-04-06T16:58:27.592Z,1009.91
2018-04-06T16:59:27.525Z,1009.89
2018-04-06T17:01:20.818Z,1009.92
2018-04-06T17:02:20.782Z,1009.91
2018-04-06T17:04:14.133Z,1009.88
2018-04-06T17:05:13.938Z,1009.89
2018-04-06T17:07:07.210Z,1009.82
2018-04-06T17:08:07.144Z,1009.85
2018-04-06T17:10:00.437Z,1009.85
2018-04-06T17:11:00.360Z,1009.87
2018-04-06T17:12:53.630Z,1009.82
2018-04-06T17:13:53.565Z,1009.83
2018-04-06T17:15:46.962Z,1009.81
2018-04-06T17:16:46.773Z,1009.83
2018-04-06T17:18:40.153Z,1009.82
2018-04-06T17:19:39.982Z,1009.84
2018-04-06T17:21:33.380Z,1009.84
2018-04-06T17:22:33.251Z,1009.83
2018-04-06T17:24:26.628Z,1009.82
2018-04-06T17:25:26.459Z,1009.88
2018-04-06T17:27:19.763Z,1009.86